EDT,Max TemperatureF,Mean TemperatureF,Min TemperatureF,Max Dew PointF,MeanDew PointF,Min DewpointF,Max Humidity, Mean Humidity, Min Humidity, Max Sea Level PressureIn, Mean Sea Level PressureIn, Min Sea Level PressureIn, Max VisibilityMiles, Mean VisibilityMiles, Min VisibilityMiles, Max Wind SpeedMPH, Mean Wind SpeedMPH, Max Gust SpeedMPH,PrecipitationIn, CloudCover, Events, WindDirDegrees
2012-10-1,67,50,32,45,38,31,95,70,32,29.96,29.90,29.85,10,10,10,12,2,16,0.00,0,,258
2012-10-2,72,56,40,45,40,32,95,62,22,29.95,29.89,29.85,10,10,3,9,1,,0.00,0,,52
2012-10-3,64,54,43,57,51,39,94,83,67,30.01,29.98,29.93,10,8,2,12,4,20,0.00,7,Rain,203
2012-10-4,74,66,57,58,54,46,96,77,37,30.01,29.98,29.93,10,8,2,20,9,25,0.00,7,Rain,224
2012-10-5,57,48,39,46,35,30,83,60,39,30.03,29.99,29.91,10,10,10,17,6,24,0.00,3,,264
2012-10-6,49,44,40,37,32,26,86,63,48,30.11,30.00,29.91,10,10,4,18,9,28,0.00,7,Rain,294
2012-10-7,47,38,29,37,31,23,93,72,43,30.11,30.09,30.06,10,10,10,13,2,16,0.00,7,,280
2012-10-8,55,39,23,32,26,22,95,62,30,30.11,30.06,29.99,10,10,7,20,4,30,0.00,2,,191
2012-10-9,64,54,43,46,34,25,90,51,31,29.99,29.85,29.74,10,10,4,25,11,37,0.00,5,Rain,201
2012-10-10,43,38,31,39,32,23,96,74,46,30.10,29.92,29.79,10,10,5,23,9,28,0.00,7,Rain,267
2012-10-11,52,40,28,42,35,28,96,81,60,30.17,30.05,29.96,10,10,4,17,4,31,0.00,6,Rain,256
2012-10-12,50,38,27,33,27,18,99,70,28,30.45,30.35,30.19,10,10,10,9,4,,0.00,0,,348
2012-10-13,59,42,27,59,39,27,99,96,79,30.33,30.06,29.80,10,6,1,10,3,18,0.00,6,Rain-Snow,164
2012-10-14,67,58,49,63,59,46,97,92,78,29.80,29.56,29.38,10,6,2,23,9,32,0.00,8,Rain,218
2012-10-15,49,46,41,45,41,36,92,84,69,29.94,29.77,29.53,10,9,3,23,15,33,0.00,8,Rain,309
2012-10-16,59,45,31,47,37,31,100,78,45,29.94,29.83,29.64,10,9,0,17,3,24,0.00,3,Fog-Rain,167
2012-10-17,72,58,45,56,47,40,94,69,37,29.64,29.53,29.44,10,10,5,18,8,30,0.00,5,Rain,177
2012-10-18,59,52,45,55,46,38,91,79,64,29.57,29.40,29.25,10,9,5,22,15,33,0.00,8,Rain,176
2012-10-19,50,47,44,45,42,38,96,85,72,29.56,29.53,29.50,10,10,3,15,6,21,0.00,7,Rain,142
2012-10-20,57,50,40,47,44,40,97,88,56,29.87,29.70,29.55,10,7,0,13,2,18,0.00,7,Fog-Rain,303
2012-10-21,62,48,33,50,39,33,99,83,43,30.05,30.00,29.88,10,5,0,9,1,,0.00,4,Fog,222
2012-10-22,69,53,37,57,45,34,97,84,39,30.04,30.00,29.93,10,8,1,8,1,,0.00,4,Rain,161
2012-10-23,60,58,55,59,57,55,100,94,88,29.99,29.95,29.89,10,5,1,9,5,,0.00,8,Rain,88
2012-10-24,72,64,55,63,59,55,100,88,72,29.98,29.94,29.90,10,6,0,12,4,,0.00,8,Fog-Rain,169
2012-10-25,77,64,50,61,57,47,90,65,43,29.90,29.79,29.69,10,10,2,23,11,36,0.00,5,Rain,186
2012-10-26,49,42,35,47,34,27,92,68,43,30.28,30.16,29.85,10,9,2,17,10,25,0.00,4,Rain,310
2012-10-27,49,39,29,32,29,24,96,71,38,30.28,30.24,30.20,10,10,10,12,3,18,0.00,1,,352
2012-10-28,48,39,30,30,26,18,93,61,30,30.29,30.25,30.20,10,10,10,14,4,23,0.00,1,,8
2012-10-29,46,40,34,28,22,18,75,50,32,30.22,30.13,29.93,10,10,10,25,12,33,0.00,0,,356
2012-10-30,41,39,37,35,31,19,87,74,41,29.91,29.70,29.63,10,9,3,28,19,34,0.00,7,Rain-Snow,352
2012-10-31,41,39,37,37,34,32,92,82,72,29.70,29.64,29.60,10,9,2,21,13,26,0.00,8,Rain,335